sensor_id;sensor_type;location;lat;lon;timestamp;pressure;altitude;pressure_sealevel;temperature;humidity
13695;BME280;6919;52.344;14.518;2022-07-25T00:00:12;100817.31;;;18.78;100.00
13695;BME280;6919;52.344;14.518;2022-07-25T00:02:42;100812.94;;;18.77;100.00
13695;BME280;6919;52.344;14.518;2022-07-25T00:05:11;100802.47;;;18.74;100.00
13695;BME280;6919;52.344;14.518;2022-07-25T00:07:39;100796.19;;;18.73;100.00
13695;BME280;6919;52.344;14.518;2022-07-25T00:10:08;100801.59;;;18.73;100.00
13695;BME280;6919;52.344;14.518;2022-07-25T00:12:37;100800.34;;;18.76;100.00
13695;BME280;6919;52.344;14.518;2022-07-25T00:15:08;100798.03;;;18.73;100.00
13695;BME280;6919;52.344;14.518;2022-07-25T00:17:37;100796.56;;;18.70;100.00
13695;BME280;6919;52.344;14.518;2022-07-25T00:20:07;100798.47;;;18.70;100.00
13695;BME280;6919;52.344;14.518;2022-07-25T00:22:35;100796.19;;;18.73;100.00
13695;BME280;6919;52.344;14.518;2022-07-25T00:25:04;100804.53;;;18.72;100.00
13695;BME280;6919;52.344;14.518;2022-07-25T00:27:33;100797.63;;;18.69;100.00
13695;BME280;6919;52.344;14.518;2022-07-25T00:30:02;100798.69;;;18.75;100.00
13695;BME280;6919;52.344;14.518;2022-07-25T00:32:31;100796.63;;;18.77;100.00
13695;BME280;6919;52.344;14.518;2022-07-25T00:34:59;100801.41;;;18.75;100.00
13695;BME280;6919;52.344;14.518;2022-07-25T00:37:28;100795.31;;;18.73;100.00
13695;BME280;6919;52.344;14.518;2022-07-25T00:39:56;100801.19;;;18.70;100.00
13695;BME280;6919;52.344;14.518;2022-07-25T00:42:24;100800.13;;;18.64;100.00
13695;BME280;6919;52.344;14.518;2022-07-25T00:44:52;100799.47;;;18.62;100.00
13695;BME280;6919;52.344;14.518;2022-07-25T00:47:21;100800.72;;;18.60;100.00
13695;BME280;6919;52.344;14.518;2022-07-25T00:49:50;100793.38;;;18.60;100.00
13695;BME280;6919;52.344;14.518;2022-07-25T00:52:19;100797.34;;;18.58;100.00
13695;BME280;6919;52.344;14.518;2022-07-25T00:54:47;100785.25;;;18.60;100.00
13695;BME280;6919;52.344;14.518;2022-07-25T00:57:15;100786.25;;;18.53;100.00
13695;BME280;6919;52.344;14.518;2022-07-25T00:59:44;100784.59;;;18.52;100.00
13695;BME280;6919;52.344;14.518;2022-07-25T01:02:12;100786.06;;;18.54;100.00
13695;BME280;6919;52.344;14.518;2022-07-25T01:04:41;100780.63;;;18.54;100.00
13695;BME280;6919;52.344;14.518;2022-07-25T01:07:10;100783.97;;;18.56;100.00
13695;BME280;6919;52.344;14.518;2022-07-25T01:09:39;100781.44;;;18.55;100.00
13695;BME280;6919;52.344;14.518;2022-07-25T01:12:07;100777.28;;;18.59;100.00
13695;BME280;6919;52.344;14.518;2022-07-25T01:14:36;100765.19;;;18.61;100.00
13695;BME280;6919;52.344;14.518;2022-07-25T01:17:04;100772.69;;;18.59;100.00
13695;BME280;6919;52.344;14.518;2022-07-25T01:19:32;100775.88;;;18.63;100.00
13695;BME280;6919;52.344;14.518;2022-07-25T01:22:02;100766.88;;;18.62;100.00
13695;BME280;6919;52.344;14.518;2022-07-25T01:24:33;100771.31;;;18.70;100.00
13695;BME280;6919;52.344;14.518;2022-07-25T01:27:01;100759.38;;;18.64;100.00
13695;BME280;6919;52.344;14.518;2022-07-25T01:29:30;100764.81;;;18.71;100.00
13695;BME280;6919;52.344;14.518;2022-07-25T01:31:58;100762.72;;;18.73;100.00
13695;BME280;6919;52.344;14.518;2022-07-25T01:34:26;100757.94;;;18.75;100.00
13695;BME280;6919;52.344;14.518;2022-07-25T01:36:54;100750.84;;;18.74;100.00
13695;BME280;6919;52.344;14.518;2022-07-25T01:39:24;100759.41;;;18.77;100.00
13695;BME280;6919;52.344;14.518;2022-07-25T01:41:52;100751.69;;;18.81;100.00
13695;BME280;6919;52.344;14.518;2022-07-25T01:44:20;100746.47;;;18.79;100.00
13695;BME280;6919;52.344;14.518;2022-07-25T01:46:48;100739.78;;;18.75;100.00
13695;BME280;6919;52.344;14.518;2022-07-25T01:49:18;100744.16;;;18.83;100.00
13695;BME280;6919;52.344;14.518;2022-07-25T01:51:46;100737.06;;;18.82;100.00
13695;BME280;6919;52.344;14.518;2022-07-25T01:54:14;100732.88;;;18.79;100.00
13695;BME280;6919;52.344;14.518;2022-07-25T01:56:44;100734.75;;;18.72;100.00
13695;BME280;6919;52.344;14.518;2022-07-25T01:59:14;100736.41;;;18.73;100.00
13695;BME280;6919;52.344;14.518;2022-07-25T02:01:42;100728.91;;;18.75;100.00
13695;BME280;6919;52.344;14.518;2022-07-25T02:04:11;100736.00;;;18.70;100.00
13695;BME280;6919;52.344;14.518;2022-07-25T02:06:39;100730.13;;;18.73;100.00
13695;BME280;6919;52.344;14.518;2022-07-25T02:09:08;100720.31;;;18.72;100.00
13695;BME280;6919;52.344;14.518;2022-07-25T02:11:36;100719.91;;;18.75;100.00
13695;BME280;6919;52.344;14.518;2022-07-25T02:14:06;100716.13;;;18.76;100.00
13695;BME280;6919;52.344;14.518;2022-07-25T02:16:35;100719.50;;;18.78;100.00
13695;BME280;6919;52.344;14.518;2022-07-25T02:19:03;100721.16;;;18.72;100.00
13695;BME280;6919;52.344;14.518;2022-07-25T02:21:32;100708.59;;;18.65;100.00
13695;BME280;6919;52.344;14.518;2022-07-25T02:24:01;100707.53;;;18.66;100.00
13695;BME280;6919;52.344;14.518;2022-07-25T02:26:29;100704.59;;;18.54;100.00
13695;BME280;6919;52.344;14.518;2022-07-25T02:28:58;100711.28;;;18.52;100.00
13695;BME280;6919;52.344;14.518;2022-07-25T02:31:27;100709.16;;;18.47;100.00
13695;BME280;6919;52.344;14.518;2022-07-25T02:33:56;100708.94;;;18.49;100.00
13695;BME280;6919;52.344;14.518;2022-07-25T02:36:24;100705.84;;;18.52;100.00
13695;BME280;6919;52.344;14.518;2022-07-25T02:38:52;100706.63;;;18.46;100.00
13695;BME280;6919;52.344;14.518;2022-07-25T02:41:20;100709.75;;;18.43;100.00
13695;BME280;6919;52.344;14.518;2022-07-25T02:43:48;100707.19;;;18.35;100.00
13695;BME280;6919;52.344;14.518;2022-07-25T02:46:17;100704.03;;;18.31;100.00
13695;BME280;6919;52.344;14.518;2022-07-25T02:48:46;100707.38;;;18.33;100.00
13695;BME280;6919;52.344;14.518;2022-07-25T02:51:14;100700.44;;;18.24;100.00
13695;BME280;6919;52.344;14.518;2022-07-25T02:53:44;100700.22;;;18.26;100.00
13695;BME280;6919;52.344;14.518;2022-07-25T02:56:24;100697.50;;;18.19;100.00
13695;BME280;6919;52.344;14.518;2022-07-25T02:58:56;100704.78;;;18.19;100.00
13695;BME280;6919;52.344;14.518;2022-07-25T03:01:24;100694.50;;;18.08;100.00
13695;BME280;6919;52.344;14.518;2022-07-25T03:03:54;100700.13;;;18.06;100.00
13695;BME280;6919;52.344;14.518;2022-07-25T03:06:23;100699.97;;;18.14;100.00
13695;BME280;6919;52.344;14.518;2022-07-25T03:08:51;100695.38;;;18.15;100.00
13695;BME280;6919;52.344;14.518;2022-07-25T03:11:20;100693.72;;;18.14;100.00
13695;BME280;6919;52.344;14.518;2022-07-25T03:13:48;100687.44;;;18.13;100.00
13695;BME280;6919;52.344;14.518;2022-07-25T03:16:16;100689.94;;;18.15;100.00
13695;BME280;6919;52.344;14.518;2022-07-25T03:18:44;100688.91;;;18.16;100.00
13695;BME280;6919;52.344;14.518;2022-07-25T03:21:14;100685.97;;;18.11;100.00
13695;BME280;6919;52.344;14.518;2022-07-25T03:23:42;100683.25;;;18.11;100.00
13695;BME280;6919;52.344;14.518;2022-07-25T03:26:17;100683.66;;;18.08;100.00
13695;BME280;6919;52.344;14.518;2022-07-25T03:28:46;100682.22;;;18.12;100.00
13695;BME280;6919;52.344;14.518;2022-07-25T03:31:14;100674.47;;;18.09;100.00
13695;BME280;6919;52.344;14.518;2022-07-25T03:33:42;100671.75;;;18.09;100.00
13695;BME280;6919;52.344;14.518;2022-07-25T03:36:10;100669.69;;;18.11;100.00
13695;BME280;6919;52.344;14.518;2022-07-25T03:38:40;100677.63;;;18.12;100.00
13695;BME280;6919;52.344;14.518;2022-07-25T03:41:08;100661.75;;;18.09;100.00
13695;BME280;6919;52.344;14.518;2022-07-25T03:43:37;100662.16;;;18.13;100.00
13695;BME280;6919;52.344;14.518;2022-07-25T03:46:05;100656.72;;;18.13;100.00
13695;BME280;6919;52.344;14.518;2022-07-25T03:48:33;100654.66;;;18.15;100.00
13695;BME280;6919;52.344;14.518;2022-07-25T03:51:01;100659.69;;;18.18;100.00
13695;BME280;6919;52.344;14.518;2022-07-25T03:53:33;100655.75;;;18.27;100.00
13695;BME280;6919;52.344;14.518;2022-07-25T03:56:23;100650.81;;;18.37;100.00
13695;BME280;6919;52.344;14.518;2022-07-25T03:58:51;100651.88;;;18.36;100.00
13695;BME280;6919;52.344;14.518;2022-07-25T04:01:20;100654.47;;;18.23;100.00
13695;BME280;6919;52.344;14.518;2022-07-25T04:03:48;100645.53;;;18.29;100.00
13695;BME280;6919;52.344;14.518;2022-07-25T04:06:17;100643.72;;;18.36;100.00
13695;BME280;6919;52.344;14.518;2022-07-25T04:08:46;100640.22;;;18.42;100.00
13695;BME280;6919;52.344;14.518;2022-07-25T04:11:14;100642.72;;;18.43;100.00
13695;BME280;6919;52.344;14.518;2022-07-25T04:13:44;100628.31;;;18.49;100.00
13695;BME280;6919;52.344;14.518;2022-07-25T04:16:14;100628.97;;;18.58;100.00
13695;BME280;6919;52.344;14.518;2022-07-25T04:18:49;100621.66;;;18.58;100.00
13695;BME280;6919;52.344;14.518;2022-07-25T04:21:18;100617.28;;;18.64;100.00
13695;BME280;6919;52.344;14.518;2022-07-25T04:23:46;100624.16;;;18.66;100.00
13695;BME280;6919;52.344;14.518;2022-07-25T04:26:15;100614.75;;;18.56;100.00
13695;BME280;6919;52.344;14.518;2022-07-25T04:28:45;100613.72;;;18.63;100.00
13695;BME280;6919;52.344;14.518;2022-07-25T04:31:13;100609.78;;;18.79;100.00
13695;BME280;6919;52.344;14.518;2022-07-25T04:33:42;100606.00;;;18.73;100.00
13695;BME280;6919;52.344;14.518;2022-07-25T04:36:10;100610.22;;;18.95;100.00
13695;BME280;6919;52.344;14.518;2022-07-25T04:38:39;100608.53;;;19.01;100.00
13695;BME280;6919;52.344;14.518;2022-07-25T04:41:07;100602.25;;;18.87;100.00
13695;BME280;6919;52.344;14.518;2022-07-25T04:43:36;100608.34;;;19.09;99.19
13695;BME280;6919;52.344;14.518;2022-07-25T04:46:05;100603.94;;;19.08;100.00
13695;BME280;6919;52.344;14.518;2022-07-25T04:48:34;100599.78;;;18.99;99.98
13695;BME280;6919;52.344;14.518;2022-07-25T04:51:02;100596.00;;;19.13;99.75
13695;BME280;6919;52.344;14.518;2022-07-25T04:53:31;100596.00;;;19.00;100.00
13695;BME280;6919;52.344;14.518;2022-07-25T04:56:00;100589.56;;;19.27;99.60
13695;BME280;6919;52.344;14.518;2022-07-25T04:58:30;100586.38;;;19.17;99.51
13695;BME280;6919;52.344;14.518;2022-07-25T05:00:58;100581.34;;;19.40;99.09
13695;BME280;6919;52.344;14.518;2022-07-25T05:03:28;100583.03;;;19.47;96.87
13695;BME280;6919;52.344;14.518;2022-07-25T05:05:56;100580.31;;;19.47;97.13
13695;BME280;6919;52.344;14.518;2022-07-25T05:08:25;100583.19;;;19.65;94.14
13695;BME280;6919;52.344;14.518;2022-07-25T05:10:53;100576.47;;;19.81;93.53
13695;BME280;6919;52.344;14.518;2022-07-25T05:13:21;100577.91;;;19.83;93.94
13695;BME280;6919;52.344;14.518;2022-07-25T05:15:49;100575.28;;;20.21;91.31
13695;BME280;6919;52.344;14.518;2022-07-25T05:18:18;100570.78;;;20.40;88.54
13695;BME280;6919;52.344;14.518;2022-07-25T05:20:47;100577.31;;;20.32;90.21
13695;BME280;6919;52.344;14.518;2022-07-25T05:23:16;100573.09;;;20.74;85.66
13695;BME280;6919;52.344;14.518;2022-07-25T05:25:44;100577.66;;;20.49;86.64
13695;BME280;6919;52.344;14.518;2022-07-25T05:28:12;100576.47;;;20.69;86.75
13695;BME280;6919;52.344;14.518;2022-07-25T05:30:41;100568.78;;;20.84;84.32
13695;BME280;6919;52.344;14.518;2022-07-25T05:33:10;100569.16;;;20.94;85.17
13695;BME280;6919;52.344;14.518;2022-07-25T05:35:38;100575.13;;;21.09;82.91
13695;BME280;6919;52.344;14.518;2022-07-25T05:38:08;100561.31;;;21.29;80.40
13695;BME280;6919;52.344;14.518;2022-07-25T05:40:36;100572.44;;;21.70;78.84
13695;BME280;6919;52.344;14.518;2022-07-25T05:43:04;100563.06;;;21.41;81.29
13695;BME280;6919;52.344;14.518;2022-07-25T05:45:32;100562.09;;;21.78;77.47
13695;BME280;6919;52.344;14.518;2022-07-25T05:48:01;100560.53;;;22.00;73.20
13695;BME280;6919;52.344;14.518;2022-07-25T05:50:29;100553.88;;;22.44;72.29
13695;BME280;6919;52.344;14.518;2022-07-25T05:52:57;100549.13;;;22.80;67.02
13695;BME280;6919;52.344;14.518;2022-07-25T05:55:27;100544.97;;;22.89;66.59
13695;BME280;6919;52.344;14.518;2022-07-25T05:57:55;100537.09;;;22.70;67.28
13695;BME280;6919;52.344;14.518;2022-07-25T06:00:24;100536.03;;;22.82;67.20
13695;BME280;6919;52.344;14.518;2022-07-25T06:02:52;100531.56;;;23.11;65.71
13695;BME280;6919;52.344;14.518;2022-07-25T06:05:21;100526.81;;;23.07;64.50
13695;BME280;6919;52.344;14.518;2022-07-25T06:07:49;100527.19;;;23.10;65.06
13695;BME280;6919;52.344;14.518;2022-07-25T06:12:46;100523.03;;;22.55;66.71
13695;BME280;6919;52.344;14.518;2022-07-25T06:15:15;100525.06;;;22.59;66.95
13695;BME280;6919;52.344;14.518;2022-07-25T06:17:52;100524.88;;;22.43;66.44
13695;BME280;6919;52.344;14.518;2022-07-25T06:20:21;100517.19;;;23.04;64.13
13695;BME280;6919;52.344;14.518;2022-07-25T06:22:50;100517.31;;;23.44;61.97
13695;BME280;6919;52.344;14.518;2022-07-25T06:25:18;100519.09;;;23.38;60.54
13695;BME280;6919;52.344;14.518;2022-07-25T06:27:49;100507.19;;;23.10;62.03
13695;BME280;6919;52.344;14.518;2022-07-25T06:30:17;100507.41;;;23.66;61.58
13695;BME280;6919;52.344;14.518;2022-07-25T06:32:46;100506.72;;;24.26;59.48
13695;BME280;6919;52.344;14.518;2022-07-25T06:35:16;100512.72;;;24.23;57.01
13695;BME280;6919;52.344;14.518;2022-07-25T06:37:45;100508.75;;;24.03;58.46
13695;BME280;6919;52.344;14.518;2022-07-25T06:40:13;100505.34;;;23.84;59.86
13695;BME280;6919;52.344;14.518;2022-07-25T06:42:44;100500.59;;;23.80;58.15
13695;BME280;6919;52.344;14.518;2022-07-25T06:45:14;100502.69;;;24.29;54.99
13695;BME280;6919;52.344;14.518;2022-07-25T06:47:44;100496.09;;;24.13;55.51
13695;BME280;6919;52.344;14.518;2022-07-25T06:50:15;100499.31;;;24.55;55.82
13695;BME280;6919;52.344;14.518;2022-07-25T06:52:47;100495.97;;;24.53;54.20
13695;BME280;6919;52.344;14.518;2022-07-25T06:55:16;100496.13;;;24.91;54.39
13695;BME280;6919;52.344;14.518;2022-07-25T06:57:44;100494.63;;;25.00;52.91
13695;BME280;6919;52.344;14.518;2022-07-25T07:00:15;100496.81;;;25.52;51.40
13695;BME280;6919;52.344;14.518;2022-07-25T07:02:49;100481.50;;;26.00;51.10
13695;BME280;6919;52.344;14.518;2022-07-25T07:05:20;100483.38;;;26.47;49.91
13695;BME280;6919;52.344;14.518;2022-07-25T07:07:49;100480.97;;;26.82;48.90
13695;BME280;6919;52.344;14.518;2022-07-25T07:10:19;100470.03;;;26.92;48.52
13695;BME280;6919;52.344;14.518;2022-07-25T07:12:48;100476.16;;;27.36;46.45
13695;BME280;6919;52.344;14.518;2022-07-25T07:15:18;100475.50;;;27.70;44.93
13695;BME280;6919;52.344;14.518;2022-07-25T07:17:47;100466.19;;;27.30;45.36
13695;BME280;6919;52.344;14.518;2022-07-25T07:20:16;100457.00;;;27.61;45.00
13695;BME280;6919;52.344;14.518;2022-07-25T07:22:45;100456.69;;;27.52;46.90
13695;BME280;6919;52.344;14.518;2022-07-25T07:25:17;100459.91;;;27.34;44.57
13695;BME280;6919;52.344;14.518;2022-07-25T07:27:47;100454.03;;;26.84;45.55
13695;BME280;6919;52.344;14.518;2022-07-25T07:30:17;100451.03;;;26.86;45.41
13695;BME280;6919;52.344;14.518;2022-07-25T07:32:56;100446.22;;;27.13;46.12
13695;BME280;6919;52.344;14.518;2022-07-25T07:35:24;100453.13;;;27.62;45.13
13695;BME280;6919;52.344;14.518;2022-07-25T07:37:54;100448.47;;;27.57;44.94
13695;BME280;6919;52.344;14.518;2022-07-25T07:40:22;100455.66;;;27.73;42.83
13695;BME280;6919;52.344;14.518;2022-07-25T07:42:52;100450.75;;;27.80;43.00
13695;BME280;6919;52.344;14.518;2022-07-25T07:45:24;100448.88;;;27.91;43.13
13695;BME280;6919;52.344;14.518;2022-07-25T07:47:54;100448.59;;;27.92;42.63
13695;BME280;6919;52.344;14.518;2022-07-25T07:50:25;100446.19;;;27.49;43.58
13695;BME280;6919;52.344;14.518;2022-07-25T07:52:55;100438.50;;;27.56;43.42
13695;BME280;6919;52.344;14.518;2022-07-25T07:55:24;100440.22;;;27.67;43.77
13695;BME280;6919;52.344;14.518;2022-07-25T07:58:11;100439.88;;;27.54;42.70
13695;BME280;6919;52.344;14.518;2022-07-25T08:00:44;100443.63;;;27.84;42.75
13695;BME280;6919;52.344;14.518;2022-07-25T08:03:17;100433.81;;;28.74;41.93
13695;BME280;6919;52.344;14.518;2022-07-25T08:05:47;100440.19;;;29.04;41.17
13695;BME280;6919;52.344;14.518;2022-07-25T08:08:18;100439.50;;;29.57;39.50
13695;BME280;6919;52.344;14.518;2022-07-25T08:10:48;100438.38;;;29.63;39.91
13695;BME280;6919;52.344;14.518;2022-07-25T08:13:23;100434.25;;;29.56;40.18
13695;BME280;6919;52.344;14.518;2022-07-25T08:15:58;100425.22;;;29.25;39.65
13695;BME280;6919;52.344;14.518;2022-07-25T08:18:29;100427.06;;;29.50;40.00
13695;BME280;6919;52.344;14.518;2022-07-25T08:20:59;100420.81;;;29.19;40.25
13695;BME280;6919;52.344;14.518;2022-07-25T08:23:29;100427.00;;;29.75;39.17
13695;BME280;6919;52.344;14.518;2022-07-25T08:26:00;100417.00;;;30.27;39.25
13695;BME280;6919;52.344;14.518;2022-07-25T08:28:29;100417.69;;;30.48;38.79
13695;BME280;6919;52.344;14.518;2022-07-25T08:30:59;100418.25;;;29.38;38.79
13695;BME280;6919;52.344;14.518;2022-07-25T08:33:28;100413.25;;;29.50;38.82
13695;BME280;6919;52.344;14.518;2022-07-25T08:35:57;100412.53;;;29.19;39.39
13695;BME280;6919;52.344;14.518;2022-07-25T08:38:27;100414.13;;;29.35;39.78
13695;BME280;6919;52.344;14.518;2022-07-25T08:40:56;100403.28;;;30.17;38.79
13695;BME280;6919;52.344;14.518;2022-07-25T08:43:25;100398.69;;;29.93;38.92
13695;BME280;6919;52.344;14.518;2022-07-25T08:46:02;100412.66;;;29.58;38.40
13695;BME280;6919;52.344;14.518;2022-07-25T08:48:32;100408.53;;;29.55;39.23
13695;BME280;6919;52.344;14.518;2022-07-25T08:51:01;100404.09;;;30.13;37.87
13695;BME280;6919;52.344;14.518;2022-07-25T08:53:30;100396.13;;;30.79;36.97
13695;BME280;6919;52.344;14.518;2022-07-25T08:56:00;100397.13;;;30.88;37.44
13695;BME280;6919;52.344;14.518;2022-07-25T08:58:38;100401.41;;;30.75;37.54
13695;BME280;6919;52.344;14.518;2022-07-25T09:01:08;100389.41;;;30.51;37.65
13695;BME280;6919;52.344;14.518;2022-07-25T09:03:37;100391.50;;;30.69;37.74
13695;BME280;6919;52.344;14.518;2022-07-25T09:06:18;100384.16;;;31.35;36.43
13695;BME280;6919;52.344;14.518;2022-07-25T09:08:55;100392.38;;;31.45;35.89
13695;BME280;6919;52.344;14.518;2022-07-25T09:11:29;100388.06;;;31.34;35.61
13695;BME280;6919;52.344;14.518;2022-07-25T09:14:00;100373.34;;;31.10;36.58
13695;BME280;6919;52.344;14.518;2022-07-25T09:16:35;100380.25;;;31.78;35.17
13695;BME280;6919;52.344;14.518;2022-07-25T09:19:13;100379.84;;;31.48;36.07
13695;BME280;6919;52.344;14.518;2022-07-25T09:21:43;100378.53;;;32.06;35.28
13695;BME280;6919;52.344;14.518;2022-07-25T09:24:15;100372.25;;;31.58;35.63
13695;BME280;6919;52.344;14.518;2022-07-25T09:26:50;100375.34;;;32.12;35.46
13695;BME280;6919;52.344;14.518;2022-07-25T09:29:22;100377.22;;;31.98;35.01
13695;BME280;6919;52.344;14.518;2022-07-25T09:31:54;100366.09;;;31.61;36.39
13695;BME280;6919;52.344;14.518;2022-07-25T09:34:41;100368.13;;;31.56;36.97
13695;BME280;6919;52.344;14.518;2022-07-25T09:37:12;100360.03;;;32.15;36.48
13695;BME280;6919;52.344;14.518;2022-07-25T09:39:43;100361.72;;;31.97;35.45
13695;BME280;6919;52.344;14.518;2022-07-25T09:42:23;100344.25;;;31.36;35.87
13695;BME280;6919;52.344;14.518;2022-07-25T09:45:01;100346.66;;;31.43;36.58
13695;BME280;6919;52.344;14.518;2022-07-25T09:47:33;100342.16;;;32.07;35.78
13695;BME280;6919;52.344;14.518;2022-07-25T09:50:04;100334.78;;;32.16;36.39
13695;BME280;6919;52.344;14.518;2022-07-25T09:52:33;100339.63;;;32.24;35.67
13695;BME280;6919;52.344;14.518;2022-07-25T09:55:03;100333.44;;;31.95;35.96
13695;BME280;6919;52.344;14.518;2022-07-25T09:57:32;100325.50;;;32.71;35.18
13695;BME280;6919;52.344;14.518;2022-07-25T10:00:01;100323.66;;;32.80;34.55
13695;BME280;6919;52.344;14.518;2022-07-25T10:02:47;100333.13;;;32.66;35.00
13695;BME280;6919;52.344;14.518;2022-07-25T10:05:30;100327.63;;;32.61;34.83
13695;BME280;6919;52.344;14.518;2022-07-25T10:08:06;100324.22;;;33.09;33.62
13695;BME280;6919;52.344;14.518;2022-07-25T10:10:38;100309.81;;;33.07;34.28
13695;BME280;6919;52.344;14.518;2022-07-25T10:13:10;100311.25;;;33.18;33.31
13695;BME280;6919;52.344;14.518;2022-07-25T10:15:49;100301.19;;;32.95;33.16
13695;BME280;6919;52.344;14.518;2022-07-25T10:18:22;100298.59;;;33.40;32.44
13695;BME280;6919;52.344;14.518;2022-07-25T10:20:54;100283.72;;;32.76;33.12
13695;BME280;6919;52.344;14.518;2022-07-25T10:23:25;100284.22;;;32.65;34.06
13695;BME280;6919;52.344;14.518;2022-07-25T10:26:03;100286.00;;;32.74;35.25
13695;BME280;6919;52.344;14.518;2022-07-25T10:28:42;100276.03;;;33.14;33.07
13695;BME280;6919;52.344;14.518;2022-07-25T10:31:20;100267.59;;;33.05;33.38
13695;BME280;6919;52.344;14.518;2022-07-25T10:33:56;100272.94;;;33.15;32.82
13695;BME280;6919;52.344;14.518;2022-07-25T10:36:27;100263.91;;;32.96;33.62
13695;BME280;6919;52.344;14.518;2022-07-25T10:39:00;100269.25;;;33.06;33.66
13695;BME280;6919;52.344;14.518;2022-07-25T10:41:29;100254.75;;;32.96;32.77
13695;BME280;6919;52.344;14.518;2022-07-25T10:44:00;100256.91;;;32.99;34.20
13695;BME280;6919;52.344;14.518;2022-07-25T10:46:33;100256.47;;;33.05;33.20
13695;BME280;6919;52.344;14.518;2022-07-25T10:49:05;100253.50;;;33.29;33.53
13695;BME280;6919;52.344;14.518;2022-07-25T10:51:36;100251.03;;;33.28;33.74
13695;BME280;6919;52.344;14.518;2022-07-25T10:54:13;100242.53;;;33.46;33.00
13695;BME280;6919;52.344;14.518;2022-07-25T10:56:52;100241.31;;;33.74;33.13
13695;BME280;6919;52.344;14.518;2022-07-25T10:59:32;100247.19;;;33.73;32.53
13695;BME280;6919;52.344;14.518;2022-07-25T11:02:02;100230.47;;;33.51;32.56
13695;BME280;6919;52.344;14.518;2022-07-25T11:04:33;100218.41;;;33.55;32.40
13695;BME280;6919;52.344;14.518;2022-07-25T11:07:10;100225.81;;;33.82;31.62
13695;BME280;6919;52.344;14.518;2022-07-25T11:09:40;100217.41;;;33.51;32.51
13695;BME280;6919;52.344;14.518;2022-07-25T11:12:14;100200.34;;;33.44;33.09
13695;BME280;6919;52.344;14.518;2022-07-25T11:14:42;100208.41;;;33.18;32.79
13695;BME280;6919;52.344;14.518;2022-07-25T11:17:17;100200.97;;;33.63;32.91
13695;BME280;6919;52.344;14.518;2022-07-25T11:19:56;100197.38;;;34.07;32.32
13695;BME280;6919;52.344;14.518;2022-07-25T11:22:27;100196.69;;;33.57;31.90
13695;BME280;6919;52.344;14.518;2022-07-25T11:24:56;100187.00;;;33.19;32.40
13695;BME280;6919;52.344;14.518;2022-07-25T11:27:27;100189.88;;;33.85;32.92
13695;BME280;6919;52.344;14.518;2022-07-25T11:30:06;100185.97;;;33.73;31.45
13695;BME280;6919;52.344;14.518;2022-07-25T11:32:39;100175.22;;;33.80;31.19
13695;BME280;6919;52.344;14.518;2022-07-25T11:35:11;100174.59;;;33.83;32.32
13695;BME280;6919;52.344;14.518;2022-07-25T11:37:43;100177.38;;;34.05;31.23
13695;BME280;6919;52.344;14.518;2022-07-25T11:40:18;100164.81;;;34.38;30.45
13695;BME280;6919;52.344;14.518;2022-07-25T11:42:50;100155.34;;;34.47;30.32
13695;BME280;6919;52.344;14.518;2022-07-25T11:45:21;100163.56;;;34.61;30.34
13695;BME280;6919;52.344;14.518;2022-07-25T11:48:03;100160.94;;;34.56;30.25
13695;BME280;6919;52.344;14.518;2022-07-25T11:50:37;100151.31;;;34.62;30.87
13695;BME280;6919;52.344;14.518;2022-07-25T11:53:10;100139.31;;;35.34;30.64
13695;BME280;6919;52.344;14.518;2022-07-25T11:55:43;100141.75;;;35.61;29.99
13695;BME280;6919;52.344;14.518;2022-07-25T11:58:13;100142.72;;;34.97;29.91
13695;BME280;6919;52.344;14.518;2022-07-25T12:00:47;100125.09;;;34.63;30.54
13695;BME280;6919;52.344;14.518;2022-07-25T12:03:17;100127.13;;;34.96;30.27
13695;BME280;6919;52.344;14.518;2022-07-25T12:05:49;100124.69;;;34.95;30.17
13695;BME280;6919;52.344;14.518;2022-07-25T12:08:20;100122.34;;;34.80;29.65
13695;BME280;6919;52.344;14.518;2022-07-25T12:10:49;100126.84;;;35.32;30.43
13695;BME280;6919;52.344;14.518;2022-07-25T12:13:22;100131.94;;;35.47;29.27
13695;BME280;6919;52.344;14.518;2022-07-25T12:15:51;100121.22;;;35.75;29.36
13695;BME280;6919;52.344;14.518;2022-07-25T12:18:20;100114.63;;;35.96;28.91
13695;BME280;6919;52.344;14.518;2022-07-25T12:20:50;100110.56;;;35.68;29.06
13695;BME280;6919;52.344;14.518;2022-07-25T12:23:19;100106.91;;;35.93;28.57
13695;BME280;6919;52.344;14.518;2022-07-25T12:25:49;100097.94;;;36.25;28.71
13695;BME280;6919;52.344;14.518;2022-07-25T12:28:17;100119.03;;;35.97;28.77
13695;BME280;6919;52.344;14.518;2022-07-25T12:30:47;100103.84;;;35.78;28.74
13695;BME280;6919;52.344;14.518;2022-07-25T12:33:22;100090.53;;;36.21;27.91
13695;BME280;6919;52.344;14.518;2022-07-25T12:35:52;100098.25;;;36.24;28.58
13695;BME280;6919;52.344;14.518;2022-07-25T12:38:21;100078.22;;;35.58;28.34
13695;BME280;6919;52.344;14.518;2022-07-25T12:40:49;100071.41;;;35.30;28.80
13695;BME280;6919;52.344;14.518;2022-07-25T12:43:18;100084.69;;;36.05;28.62
13695;BME280;6919;52.344;14.518;2022-07-25T12:45:46;100071.00;;;35.66;28.06
13695;BME280;6919;52.344;14.518;2022-07-25T12:48:14;100068.56;;;34.71;29.43
13695;BME280;6919;52.344;14.518;2022-07-25T12:50:43;100067.19;;;34.43;29.78
13695;BME280;6919;52.344;14.518;2022-07-25T12:53:13;100066.09;;;34.61;29.90
13695;BME280;6919;52.344;14.518;2022-07-25T12:55:42;100061.88;;;35.40;29.19
13695;BME280;6919;52.344;14.518;2022-07-25T12:58:10;100056.03;;;36.54;28.44
13695;BME280;6919;52.344;14.518;2022-07-25T13:00:40;100053.31;;;37.28;27.11
13695;BME280;6919;52.344;14.518;2022-07-25T13:03:09;100063.25;;;36.55;27.66